createdAt,value
2018-07-24T00:01:46.360Z,16.58
2018-07-24T00:04:13.349Z,16.63
2018-07-24T00:06:40.343Z,15.70
2018-07-24T00:09:09.462Z,16.13
2018-07-24T00:11:36.451Z,15.17
2018-07-24T00:14:03.431Z,13.53
2018-07-24T00:16:30.455Z,14.87
2018-07-24T00:18:57.534Z,12.63
2018-07-24T00:21:24.512Z,13.30
2018-07-24T00:23:51.600Z,14.00
2018-07-24T00:26:18.598Z,15.10
2018-07-24T00:28:45.579Z,16.60
2018-07-24T00:31:16.511Z,15.73
2018-07-24T00:33:43.497Z,13.20
2018-07-24T00:36:11.432Z,14.37
2018-07-24T00:38:38.464Z,18.17
2018-07-24T00:41:05.480Z,13.40
2018-07-24T00:43:32.455Z,14.63
2018-07-24T00:48:30.681Z,14.87
2018-07-24T00:50:57.728Z,15.83
2018-07-24T00:53:24.781Z,13.63
2018-07-24T00:55:51.763Z,14.63
2018-07-24T00:58:18.746Z,16.33
2018-07-24T01:00:45.817Z,16.57
2018-07-24T01:03:12.766Z,19.30
2018-07-24T01:05:39.764Z,18.73
2018-07-24T01:08:06.802Z,16.33
2018-07-24T01:13:12.320Z,18.75
2018-07-24T01:15:39.309Z,17.37
2018-07-24T01:18:06.288Z,14.40
2018-07-24T01:20:34.959Z,15.63
2018-07-24T01:23:01.949Z,13.43
2018-07-24T01:25:30.417Z,14.37
2018-07-24T01:27:57.466Z,16.90
2018-07-24T01:30:25.396Z,14.30
2018-07-24T01:32:52.381Z,16.90
2018-07-24T01:35:19.431Z,14.27
2018-07-24T01:37:46.418Z,14.90
2018-07-24T01:40:13.456Z,14.43
2018-07-24T01:42:40.525Z,14.97
2018-07-24T01:45:07.503Z,17.43
2018-07-24T01:47:34.507Z,16.20
2018-07-24T01:50:01.546Z,18.57
2018-07-24T01:52:28.556Z,15.17
2018-07-24T01:54:55.536Z,14.67
2018-07-24T01:57:22.610Z,18.47
2018-07-24T01:59:49.597Z,15.40
2018-07-24T02:02:16.587Z,16.30
2018-07-24T02:04:43.638Z,18.30
2018-07-24T02:07:10.619Z,17.23
2018-07-24T02:09:37.610Z,17.40
2018-07-24T02:12:05.609Z,15.87
2018-07-24T02:14:32.607Z,17.23
2018-07-24T02:19:40.095Z,16.52
2018-07-24T02:22:07.080Z,15.00
2018-07-24T02:24:34.071Z,15.27
2018-07-24T02:27:01.136Z,15.60
2018-07-24T02:29:28.128Z,13.57
2018-07-24T02:31:55.199Z,14.97
2018-07-24T02:34:22.147Z,15.20
2018-07-24T02:36:53.334Z,16.47
2018-07-24T02:41:47.701Z,18.33
2018-07-24T02:44:14.692Z,17.63
2018-07-24T02:46:41.762Z,15.33
2018-07-24T02:49:08.829Z,15.53
2018-07-24T02:51:35.824Z,16.57
2018-07-24T02:54:02.981Z,16.03
2018-07-24T02:56:32.424Z,15.27
2018-07-24T02:58:57.342Z,18.67
2018-07-24T03:01:24.332Z,16.47
2018-07-24T03:03:54.343Z,16.50
2018-07-24T03:06:21.415Z,22.53
2018-07-24T03:08:48.401Z,16.67
2018-07-24T03:11:15.459Z,17.83
2018-07-24T03:13:43.273Z,14.57
2018-07-24T03:16:10.295Z,15.60
2018-07-24T03:21:09.360Z,16.17
2018-07-24T03:23:36.354Z,17.70
2018-07-24T03:26:03.369Z,19.90
2018-07-24T03:28:32.261Z,16.53
2018-07-24T03:30:59.250Z,16.13
2018-07-24T03:33:26.240Z,16.93
2018-07-24T03:35:53.300Z,17.40
2018-07-24T03:38:20.289Z,22.97
2018-07-24T03:43:26.434Z,17.92
2018-07-24T03:45:53.413Z,19.17
2018-07-24T03:48:20.415Z,16.37
2018-07-24T03:50:47.471Z,19.80
2018-07-24T03:53:14.461Z,21.80
2018-07-24T03:55:41.454Z,17.40
2018-07-24T03:58:13.572Z,17.60
2018-07-24T04:00:39.600Z,23.37
2018-07-24T04:03:14.311Z,20.23
2018-07-24T04:05:42.186Z,18.70
2018-07-24T04:08:09.267Z,20.13
2018-07-24T04:10:36.355Z,16.63
2018-07-24T04:13:03.430Z,23.87
2018-07-24T04:15:30.422Z,19.03
2018-07-24T04:17:57.484Z,19.87
2018-07-24T04:20:24.468Z,20.30
2018-07-24T04:22:51.453Z,18.70
2018-07-24T04:25:18.507Z,18.10
2018-07-24T04:27:46.246Z,18.23
2018-07-24T04:30:13.043Z,17.43
2018-07-24T04:32:40.090Z,22.87
2018-07-24T04:35:09.171Z,20.03
2018-07-24T04:37:36.215Z,19.70
2018-07-24T04:40:09.679Z,18.90
2018-07-24T04:45:17.079Z,19.48
2018-07-24T04:47:44.067Z,21.00
2018-07-24T04:50:12.022Z,20.53
2018-07-24T04:52:39.436Z,20.37
2018-07-24T04:55:09.684Z,20.10
2018-07-24T04:57:36.676Z,15.80
2018-07-24T05:00:03.698Z,19.63
2018-07-24T05:02:30.700Z,16.83
2018-07-24T05:04:57.658Z,18.53
2018-07-24T05:07:24.707Z,19.30
2018-07-24T05:09:51.695Z,20.50
2018-07-24T05:12:18.679Z,20.93
2018-07-24T05:14:45.714Z,18.47
2018-07-24T05:17:13.771Z,15.80
2018-07-24T05:19:40.750Z,19.53
2018-07-24T05:22:11.515Z,17.57
2018-07-24T05:24:34.805Z,18.13
2018-07-24T05:27:02.618Z,18.07
2018-07-24T05:29:30.462Z,19.03
2018-07-24T05:31:57.451Z,20.97
2018-07-24T05:34:26.172Z,17.53
2018-07-24T05:36:53.197Z,16.77
2018-07-24T05:39:22.429Z,17.30
2018-07-24T05:41:49.389Z,20.10
2018-07-24T05:44:16.367Z,19.63
2018-07-24T05:46:43.353Z,20.07
2018-07-24T05:49:12.279Z,19.77
2018-07-24T05:51:38.349Z,22.13
2018-07-24T05:54:05.334Z,18.70
2018-07-24T05:56:33.227Z,19.03
2018-07-24T05:59:00.262Z,24.57
2018-07-24T06:01:27.259Z,24.87
2018-07-24T06:06:38.677Z,17.12
2018-07-24T06:09:05.682Z,17.40
2018-07-24T06:11:32.666Z,17.17
2018-07-24T06:13:59.723Z,16.57
2018-07-24T06:16:28.332Z,15.00
2018-07-24T06:18:55.322Z,13.80
2018-07-24T06:21:22.354Z,18.80
2018-07-24T06:23:49.433Z,18.03
2018-07-24T06:26:17.403Z,14.53
2018-07-24T06:28:47.609Z,13.30
2018-07-24T06:31:15.470Z,13.37
2018-07-24T06:33:43.278Z,13.20
2018-07-24T06:36:10.947Z,14.70
2018-07-24T06:38:38.890Z,14.73
2018-07-24T06:41:06.911Z,13.77
2018-07-24T06:43:37.424Z,13.20
2018-07-24T06:46:09.304Z,14.67
2018-07-24T06:48:36.292Z,12.27
2018-07-24T06:51:03.368Z,21.30
2018-07-24T06:53:30.335Z,15.03
2018-07-24T06:55:57.323Z,10.40
2018-07-24T06:58:24.361Z,15.30
2018-07-24T07:00:51.517Z,13.50
2018-07-24T07:03:18.642Z,12.50
2018-07-24T07:05:46.599Z,12.50
2018-07-24T07:08:13.595Z,10.00
2018-07-24T07:10:41.329Z,10.73
2018-07-24T07:13:08.411Z,11.10
2018-07-24T07:15:35.353Z,11.10
2018-07-24T07:18:02.335Z,12.17
2018-07-24T07:20:30.285Z,10.33
2018-07-24T07:25:38.714Z,11.68
2018-07-24T07:28:05.693Z,12.27
2018-07-24T07:30:32.678Z,10.10
2018-07-24T07:32:59.720Z,16.87
2018-07-24T07:35:26.702Z,13.00
2018-07-24T07:37:56.005Z,14.43
2018-07-24T07:40:23.873Z,14.17
2018-07-24T07:42:53.847Z,10.77
2018-07-24T07:45:21.827Z,10.03
2018-07-24T07:47:50.459Z,11.33
2018-07-24T07:50:17.449Z,11.23
2018-07-24T07:52:45.242Z,11.50
2018-07-24T07:55:12.327Z,11.63
2018-07-24T07:57:39.956Z,11.03
2018-07-24T08:00:06.938Z,13.30
2018-07-24T08:02:34.928Z,12.63
2018-07-24T08:05:01.897Z,13.37
2018-07-24T08:07:28.879Z,13.20
2018-07-24T08:09:55.932Z,12.30
2018-07-24T08:12:27.317Z,12.63
2018-07-24T08:14:55.277Z,13.37
2018-07-24T08:17:22.811Z,14.53
2018-07-24T08:19:49.796Z,13.53
2018-07-24T08:24:57.874Z,12.15
2018-07-24T08:27:25.692Z,10.87
2018-07-24T08:29:56.594Z,11.37
2018-07-24T08:32:23.571Z,13.33
2018-07-24T08:34:51.483Z,11.50
2018-07-24T08:37:18.461Z,11.80
2018-07-24T08:39:48.609Z,11.40
2018-07-24T08:42:16.378Z,12.10
2018-07-24T08:44:43.413Z,11.73
2018-07-24T08:47:10.436Z,10.63
2018-07-24T08:49:42.329Z,10.83
2018-07-24T08:52:09.404Z,11.73
2018-07-24T08:54:37.921Z,11.20
2018-07-24T08:57:04.787Z,11.60
2018-07-24T08:59:32.719Z,10.17
2018-07-24T09:01:59.790Z,10.07
2018-07-24T09:04:26.814Z,10.60
2018-07-24T09:06:53.806Z,11.93
2018-07-24T09:09:20.784Z,9.67
2018-07-24T09:11:48.793Z,11.53
2018-07-24T09:14:15.777Z,16.63
2018-07-24T09:16:42.764Z,11.03
2018-07-24T09:19:09.786Z,12.13
2018-07-24T09:21:39.396Z,10.83
2018-07-24T09:24:06.384Z,13.43
2018-07-24T09:26:33.442Z,11.53
2018-07-24T09:29:00.421Z,10.80
2018-07-24T09:34:07.988Z,12.20
2018-07-24T09:36:35.697Z,11.10
2018-07-24T09:39:02.689Z,11.07
2018-07-24T09:41:30.707Z,11.73
2018-07-24T09:43:58.656Z,12.77
2018-07-24T09:46:25.646Z,13.77
2018-07-24T09:48:52.681Z,12.90
2018-07-24T09:51:20.483Z,12.60
2018-07-24T09:53:47.470Z,13.83
2018-07-24T09:56:15.985Z,11.17
2018-07-24T09:58:42.977Z,11.53
2018-07-24T10:01:09.955Z,9.97
2018-07-24T10:03:36.989Z,11.43
2018-07-24T10:06:03.991Z,10.23
2018-07-24T10:08:30.971Z,10.20
2018-07-24T10:10:58.035Z,12.03
2018-07-24T10:13:25.046Z,11.13
2018-07-24T10:15:52.009Z,10.93
2018-07-24T10:18:19.032Z,11.70
2018-07-24T10:20:46.021Z,11.03
2018-07-24T10:23:13.841Z,13.47
2018-07-24T10:25:43.828Z,10.70
2018-07-24T10:28:10.831Z,11.23
2018-07-24T10:30:38.563Z,8.37
2018-07-24T10:33:05.849Z,9.87
2018-07-24T10:35:33.860Z,8.90
2018-07-24T10:40:41.672Z,7.07
2018-07-24T10:43:08.565Z,7.40
2018-07-24T10:45:38.490Z,9.17
2018-07-24T10:48:05.639Z,9.57
2018-07-24T10:50:32.704Z,8.53
2018-07-24T10:52:59.694Z,9.40
2018-07-24T10:55:27.665Z,10.67
2018-07-24T10:57:54.635Z,8.23
2018-07-24T11:00:21.619Z,10.57
2018-07-24T11:02:48.645Z,10.47
2018-07-24T11:05:16.401Z,9.50
2018-07-24T11:07:44.260Z,12.13
2018-07-24T11:10:11.290Z,8.37
2018-07-24T11:12:39.230Z,9.07
2018-07-24T11:15:06.303Z,9.17
2018-07-24T11:17:36.635Z,9.00
2018-07-24T11:20:03.701Z,8.20
2018-07-24T11:22:31.654Z,8.03
2018-07-24T11:24:58.700Z,8.00
2018-07-24T11:27:25.801Z,8.93
2018-07-24T11:29:52.759Z,9.07
2018-07-24T11:32:19.784Z,9.70
2018-07-24T11:34:46.774Z,12.40
2018-07-24T11:37:14.597Z,9.87
2018-07-24T11:39:41.653Z,10.13
2018-07-24T11:42:09.583Z,11.13
2018-07-24T11:44:36.569Z,10.10
2018-07-24T11:47:03.605Z,12.13
2018-07-24T11:49:30.683Z,11.10
2018-07-24T11:51:57.816Z,12.10
2018-07-24T11:54:24.751Z,13.03
2018-07-24T11:59:32.245Z,10.70
2018-07-24T12:01:59.230Z,9.85
2018-07-24T12:04:26.270Z,12.37
2018-07-24T12:06:54.144Z,9.65
2018-07-24T12:09:22.046Z,10.98
2018-07-24T12:11:49.037Z,9.90
2018-07-24T12:14:16.925Z,9.25
2018-07-24T12:16:44.884Z,10.05
2018-07-24T12:19:11.873Z,9.55
2018-07-24T12:21:39.863Z,10.20
2018-07-24T12:24:06.848Z,9.10
2018-07-24T12:26:34.857Z,9.38
2018-07-24T12:29:01.889Z,9.80
2018-07-24T12:31:29.709Z,9.20
2018-07-24T12:33:56.694Z,9.80
2018-07-24T12:36:23.742Z,8.33
2018-07-24T12:38:50.859Z,9.88
2018-07-24T12:41:17.841Z,10.45
2018-07-24T12:43:44.946Z,8.98
2018-07-24T12:46:11.848Z,9.23
2018-07-24T12:48:39.657Z,7.33
2018-07-24T12:51:07.666Z,5.90
2018-07-24T12:53:35.504Z,5.15
2018-07-24T12:56:02.535Z,5.80
2018-07-24T12:58:30.372Z,5.70
2018-07-24T13:00:57.357Z,5.55
2018-07-24T13:03:24.331Z,5.20
2018-07-24T13:05:52.172Z,5.32
2018-07-24T13:08:19.229Z,6.57
2018-07-24T13:10:46.143Z,5.37
2018-07-24T13:13:13.186Z,4.07
2018-07-24T13:18:22.455Z,4.77
2018-07-24T13:20:49.440Z,3.83
2018-07-24T13:23:17.215Z,4.85
2018-07-24T13:25:44.983Z,7.37
2018-07-24T13:28:12.910Z,4.15
2018-07-24T13:30:39.899Z,9.20
2018-07-24T13:33:06.926Z,4.03
2018-07-24T13:35:33.938Z,4.93
2018-07-24T13:38:00.918Z,4.43
2018-07-24T13:40:27.971Z,4.95
2018-07-24T13:42:55.768Z,3.95
2018-07-24T13:45:23.563Z,4.78
2018-07-24T13:47:50.588Z,3.95
2018-07-24T13:50:17.681Z,3.97
2018-07-24T13:52:44.666Z,3.85
2018-07-24T13:55:11.716Z,4.78
2018-07-24T13:57:38.703Z,5.50
2018-07-24T14:02:45.900Z,4.00
2018-07-24T14:05:12.888Z,4.45
2018-07-24T14:07:39.862Z,4.65
2018-07-24T14:10:06.891Z,3.83
2018-07-24T14:12:33.945Z,4.22
2018-07-24T14:15:01.020Z,4.53
2018-07-24T14:17:28.904Z,5.72
2018-07-24T14:19:56.841Z,5.50
2018-07-24T14:22:23.823Z,4.30
2018-07-24T14:24:50.875Z,4.10
2018-07-24T14:27:17.867Z,3.85
2018-07-24T14:29:44.854Z,3.90
2018-07-24T14:32:12.596Z,5.00
2018-07-24T14:34:39.578Z,4.47
2018-07-24T14:37:06.564Z,4.30
2018-07-24T14:39:33.641Z,3.67
2018-07-24T14:42:00.641Z,3.20
2018-07-24T14:44:27.623Z,3.40
2018-07-24T14:46:54.646Z,3.53
2018-07-24T14:49:22.391Z,4.15
2018-07-24T14:51:50.298Z,4.15
2018-07-24T14:54:18.147Z,4.00
2018-07-24T14:56:46.026Z,9.02
2018-07-24T14:59:13.024Z,4.07
2018-07-24T15:01:40.052Z,4.65
2018-07-24T15:04:07.031Z,4.18
2018-07-24T15:06:34.023Z,4.32
2018-07-24T15:09:01.071Z,4.90
2018-07-24T15:11:28.065Z,4.28
2018-07-24T15:13:55.091Z,4.10
2018-07-24T15:16:22.070Z,4.37
2018-07-24T15:18:50.016Z,4.55
2018-07-24T15:21:17.097Z,4.05
2018-07-24T15:23:44.152Z,7.05
2018-07-24T15:28:51.544Z,4.57
2018-07-24T15:31:18.553Z,4.50
2018-07-24T15:33:45.531Z,7.00
2018-07-24T15:36:12.548Z,4.50
2018-07-24T15:38:39.533Z,4.60
2018-07-24T15:41:07.158Z,4.32
2018-07-24T15:43:34.201Z,4.15
2018-07-24T15:46:01.177Z,4.37
2018-07-24T15:48:28.986Z,5.10
2018-07-24T15:50:56.041Z,5.78
2018-07-24T15:53:23.832Z,4.32
2018-07-24T15:55:50.810Z,4.40
2018-07-24T15:58:17.867Z,4.20
2018-07-24T16:00:44.852Z,4.55
2018-07-24T16:03:11.844Z,5.07
2018-07-24T16:05:38.901Z,4.53
2018-07-24T16:08:05.885Z,4.78
2018-07-24T16:10:32.957Z,4.55
2018-07-24T16:13:00.009Z,4.90
2018-07-24T16:15:27.763Z,5.00
2018-07-24T16:17:54.714Z,4.72
2018-07-24T16:20:21.747Z,4.93
2018-07-24T16:22:48.718Z,6.43
2018-07-24T16:25:16.456Z,6.15
2018-07-24T16:27:43.510Z,4.70
2018-07-24T16:30:10.482Z,4.60
2018-07-24T16:32:38.287Z,4.73
2018-07-24T16:35:05.394Z,4.95
2018-07-24T16:40:10.928Z,5.50
2018-07-24T16:42:37.902Z,5.22
2018-07-24T16:45:04.882Z,5.33
2018-07-24T16:47:31.909Z,5.18
2018-07-24T16:49:58.896Z,6.83
2018-07-24T16:52:26.729Z,5.70
2018-07-24T16:54:54.509Z,4.73
2018-07-24T16:57:21.497Z,5.07
2018-07-24T16:59:48.501Z,5.57
2018-07-24T17:02:15.533Z,4.93
2018-07-24T17:04:42.522Z,5.87
2018-07-24T17:07:09.515Z,5.90
2018-07-24T17:09:36.541Z,5.73
2018-07-24T17:12:03.578Z,5.53
2018-07-24T17:14:30.561Z,7.03
2018-07-24T17:16:57.709Z,5.70
2018-07-24T17:19:24.690Z,5.73
2018-07-24T17:21:52.563Z,5.80
2018-07-24T17:24:19.596Z,6.33
2018-07-24T17:26:46.588Z,6.13
2018-07-24T17:29:13.566Z,5.77
2018-07-24T17:31:40.643Z,5.43
2018-07-24T17:34:07.693Z,5.57
2018-07-24T17:36:34.667Z,5.50
2018-07-24T17:39:01.693Z,7.73
2018-07-24T17:41:28.680Z,7.60
2018-07-24T17:43:55.661Z,6.27
2018-07-24T17:46:23.510Z,6.20
2018-07-24T17:48:50.509Z,5.67
2018-07-24T17:51:17.506Z,5.70
2018-07-24T17:53:44.609Z,6.60
2018-07-24T17:56:12.265Z,6.03
2018-07-24T18:01:17.767Z,8.20
2018-07-24T18:03:44.774Z,9.40
2018-07-24T18:06:11.794Z,6.10
2018-07-24T18:08:39.712Z,7.90
2018-07-24T18:11:06.716Z,6.57
2018-07-24T18:13:34.934Z,6.83
2018-07-24T18:16:01.980Z,6.30
2018-07-24T18:18:29.930Z,5.70
2018-07-24T18:20:56.912Z,7.60
2018-07-24T18:23:24.819Z,7.83
2018-07-24T18:25:51.786Z,6.57
2018-07-24T18:28:18.789Z,5.87
2018-07-24T18:30:45.871Z,16.97
2018-07-24T18:33:13.694Z,7.73
2018-07-24T18:35:41.250Z,12.40
2018-07-24T18:38:08.287Z,9.70
2018-07-24T18:40:36.229Z,6.90
2018-07-24T18:43:03.272Z,14.67
2018-07-24T18:45:30.414Z,9.57
2018-07-24T18:47:57.486Z,8.30
2018-07-24T18:50:25.328Z,8.13
2018-07-24T18:52:52.442Z,6.43
2018-07-24T18:55:20.230Z,7.10
2018-07-24T18:57:48.056Z,6.40
2018-07-24T19:00:15.459Z,7.27
2018-07-24T19:02:42.637Z,10.47
2018-07-24T19:05:09.630Z,6.67
2018-07-24T19:07:37.197Z,6.40
2018-07-24T19:10:04.211Z,6.77
2018-07-24T19:12:31.201Z,6.50
2018-07-24T19:14:58.353Z,6.70
2018-07-24T19:17:26.377Z,8.13
2018-07-24T19:19:53.355Z,7.07
2018-07-24T19:22:20.456Z,6.50
2018-07-24T19:24:47.544Z,6.30
2018-07-24T19:29:54.137Z,6.60
2018-07-24T19:32:21.200Z,6.00
2018-07-24T19:34:48.232Z,6.73
2018-07-24T19:37:15.277Z,6.33
2018-07-24T19:39:42.485Z,6.00
2018-07-24T19:42:09.533Z,5.77
2018-07-24T19:44:36.817Z,7.27
2018-07-24T19:47:03.805Z,8.77
2018-07-24T19:49:30.853Z,13.53
2018-07-24T19:51:58.145Z,14.90
2018-07-24T19:54:25.312Z,9.00
2018-07-24T19:56:52.486Z,7.80
2018-07-24T19:59:19.654Z,7.73
2018-07-24T20:01:46.771Z,8.23
2018-07-24T20:04:13.767Z,7.87
2018-07-24T20:06:40.789Z,8.07
2018-07-24T20:09:07.794Z,7.63
2018-07-24T20:11:34.921Z,7.70
2018-07-24T20:14:02.070Z,7.37
2018-07-24T20:16:29.531Z,7.40
2018-07-24T20:18:56.525Z,7.13
2018-07-24T20:21:23.600Z,7.23
2018-07-24T20:23:50.735Z,7.50
2018-07-24T20:26:17.604Z,8.90
2018-07-24T20:28:45.548Z,7.77
2018-07-24T20:33:51.983Z,9.33
2018-07-24T20:36:19.055Z,7.17
2018-07-24T20:38:46.082Z,6.80
2018-07-24T20:41:13.242Z,8.83
2018-07-24T20:43:40.223Z,7.30
2018-07-24T20:46:07.230Z,8.47
2018-07-24T20:48:34.286Z,8.07
2018-07-24T20:51:01.313Z,7.60
2018-07-24T20:53:28.270Z,7.57
2018-07-24T20:55:55.437Z,9.57
2018-07-24T20:58:22.443Z,8.13
2018-07-24T21:00:49.440Z,9.40
2018-07-24T21:03:16.474Z,7.80
2018-07-24T21:05:43.454Z,8.80
2018-07-24T21:08:10.444Z,7.97
2018-07-24T21:10:37.500Z,9.03
2018-07-24T21:13:04.524Z,7.47
2018-07-24T21:15:31.469Z,8.03
2018-07-24T21:17:58.499Z,7.80
2018-07-24T21:20:25.565Z,10.03
2018-07-24T21:22:52.548Z,7.80
2018-07-24T21:25:19.608Z,7.30
2018-07-24T21:27:46.595Z,8.20
2018-07-24T21:30:13.580Z,8.40
2018-07-24T21:32:40.622Z,8.00
2018-07-24T21:35:07.620Z,7.77
2018-07-24T21:37:34.694Z,7.43
2018-07-24T21:40:01.751Z,7.90
2018-07-24T21:42:28.804Z,7.17
2018-07-24T21:44:55.831Z,7.33
2018-07-24T21:47:22.870Z,10.03
2018-07-24T21:52:28.427Z,8.20
2018-07-24T21:54:55.436Z,8.20
2018-07-24T21:57:22.593Z,12.07
2018-07-24T21:59:49.594Z,9.17
2018-07-24T22:02:16.589Z,9.67
2018-07-24T22:04:43.572Z,8.37
2018-07-24T22:07:10.611Z,7.80
2018-07-24T22:09:37.597Z,10.57
2018-07-24T22:12:04.593Z,9.07
2018-07-24T22:14:31.627Z,11.07
2018-07-24T22:16:58.621Z,9.13
2018-07-24T22:19:25.612Z,8.00
2018-07-24T22:21:52.705Z,8.30
2018-07-24T22:24:19.700Z,8.47
2018-07-24T22:26:46.690Z,12.57
2018-07-24T22:29:13.713Z,12.23
2018-07-24T22:31:40.692Z,8.30
2018-07-24T22:34:07.680Z,11.67
2018-07-24T22:36:34.745Z,8.33
2018-07-24T22:39:01.731Z,10.67
2018-07-24T22:41:28.713Z,8.03
2018-07-24T22:43:55.752Z,8.30
2018-07-24T22:46:22.825Z,9.33
2018-07-24T22:48:49.809Z,8.67
2018-07-24T22:51:17.815Z,10.17
2018-07-24T22:53:44.896Z,7.77
2018-07-24T22:56:11.894Z,9.03
2018-07-24T22:58:38.922Z,8.40
2018-07-24T23:01:05.906Z,8.83
2018-07-24T23:03:33.830Z,8.47
2018-07-24T23:06:00.907Z,8.40
2018-07-24T23:08:27.882Z,9.87
2018-07-24T23:13:33.390Z,10.18
2018-07-24T23:16:00.366Z,8.17
2018-07-24T23:18:27.444Z,8.67
2018-07-24T23:20:54.492Z,8.37
2018-07-24T23:23:21.483Z,8.77
2018-07-24T23:25:48.469Z,9.20
2018-07-24T23:28:15.497Z,10.40
2018-07-24T23:30:42.574Z,10.00
2018-07-24T23:33:09.553Z,9.30
2018-07-24T23:35:36.584Z,8.50
2018-07-24T23:38:03.571Z,8.47
2018-07-24T23:40:30.554Z,9.90
2018-07-24T23:42:57.591Z,8.87
2018-07-24T23:45:24.590Z,9.13
2018-07-24T23:47:51.571Z,9.60
2018-07-24T23:50:18.629Z,11.57
2018-07-24T23:52:45.656Z,8.50
2018-07-24T23:55:12.676Z,9.47
2018-07-24T23:57:40.516Z,9.00
